Terminal Aerodrome Forecast
Issued by NWS

Home | Current Version | Previous Version | Text Only | Print | Product List | Glossary On
Versions: 1 2 3 4 5 6 7 8 9 10 11 12 13 14 15
000
FTUS45 KTFX 152350
TAFLWT
TAF
KLWT 152350Z 1600/1624 30012KT P6SM SCT060 BKN150
     FM160500 31010KT 2SM -SN BR SCT008 OVC020
     FM161400 30007KT 3SM -SN BR SCT010 OVC020=

USA.gov is the U.S. government's official web portal to all federal, state and local government web resources and services.